< < Back
Terminal Aerodrome Forecast


Current Version              Previous Versions:   1  2  3  4  5  6  7  8  9  

Terminal Aerodrome Forecast

316
FTUS44 KOHX 240958 AAA
TAFBNA
TAF AMD
KBNA 240958Z 2410/2506 00000KT P6SM FEW150 SCT250
      TEMPO 2410/2413 4SM BR
     FM241330 22007KT P6SM SCT040 SCT100 BKN250
     FM250000 VRB02KT P6SM BKN250=



Latest METAR

573
SAUS70 KWBC 242300 RRJ
MTRBNA
METAR KBNA 242253Z 22005KT 10SM FEW045 BKN250 32/21 A3012 RMK AO2 SLP192
T03220211


USA.gov is the U.S. government's official web portal to all federal, state and local government web resources and services.